Time;durP1;ratioP1;P1;durP2;ratioP2;P2;SDS_P1;SDS_P2;PMS_P1;PMS_P2;Temp;Humidity;BMP_temperature;BMP_pressure;BME280_temperature;BME280_humidity;BME280_pressure;Samples;Min_cycle;Max_cycle;Signal;HPM_P1;HPM_P2
2023/02/19 00:01:53;;;;;;;4.72;2.10;;;;;;;17.85;50.99;100254.81;5095720;28;20048;-75
2023/02/19 00:04:22;;;;;;;4.57;2.30;;;;;;;17.85;51.33;100256.69;5095648;28;20079;-74
2023/02/19 00:06:51;;;;;;;3.70;2.05;;;;;;;17.83;50.74;100264.06;5095586;28;20054;-73
2023/02/19 00:09:20;;;;;;;3.85;2.10;;;;;;;17.81;51.29;100260.66;5095313;28;20044;-73
2023/02/19 00:11:49;;;;;;;4.45;2.30;;;;;;;17.80;51.10;100258.94;5095327;28;20546;-72
2023/02/19 00:14:19;;;;;;;3.97;1.88;;;;;;;17.77;50.82;100251.16;5095459;28;20424;-74
2023/02/19 00:16:48;;;;;;;4.25;2.05;;;;;;;17.74;51.39;100255.81;5095359;28;20051;-73
2023/02/19 00:19:19;;;;;;;3.40;2.05;;;;;;;17.73;51.12;100259.50;5095485;28;20134;-74
2023/02/19 00:21:50;;;;;;;3.67;1.75;;;;;;;17.71;51.02;100257.94;5095359;28;20051;-73
2023/02/19 00:24:19;;;;;;;3.85;2.13;;;;;;;17.69;51.33;100263.47;5095126;28;20047;-74
2023/02/19 00:26:48;;;;;;;4.65;2.08;;;;;;;17.68;50.97;100253.66;5095223;28;20051;-74
2023/02/19 00:29:18;;;;;;;4.53;2.08;;;;;;;17.66;51.32;100242.16;5095053;28;20050;-72
2023/02/19 00:31:46;;;;;;;4.22;2.10;;;;;;;17.65;51.15;100242.25;5094858;28;20044;-72
2023/02/19 00:34:15;;;;;;;2.65;1.63;;;;;;;17.63;51.40;100246.94;5095015;28;20515;-73
2023/02/19 00:36:44;;;;;;;3.92;2.00;;;;;;;17.62;51.11;100245.25;5094907;28;20055;-73
2023/02/19 00:39:17;;;;;;;3.17;1.80;;;;;;;17.59;51.26;100253.63;5094947;28;20054;-73
2023/02/19 00:41:46;;;;;;;3.50;1.93;;;;;;;17.57;51.45;100242.97;5094691;28;20044;-73
2023/02/19 00:44:14;;;;;;;3.97;2.00;;;;;;;17.55;51.46;100250.31;5094843;28;20040;-73
2023/02/19 00:46:44;;;;;;;3.38;1.77;;;;;;;17.54;50.99;100245.91;5095001;28;20127;-74
2023/02/19 00:49:17;;;;;;;3.30;1.65;;;;;;;17.54;51.16;100254.00;5094716;28;20044;-74
2023/02/19 00:51:47;;;;;;;2.72;1.70;;;;;;;17.49;51.38;100245.50;5094660;28;20044;-75
2023/02/19 00:54:16;;;;;;;3.92;1.70;;;;;;;17.46;51.46;100251.13;5094681;28;20181;-74
2023/02/19 00:56:45;;;;;;;2.72;1.60;;;;;;;17.48;51.68;100259.13;5094619;28;20048;-74
2023/02/19 00:59:13;;;;;;;3.78;1.77;;;;;;;17.47;51.93;100260.97;5094661;28;20048;-74
2023/02/19 01:01:43;;;;;;;3.80;1.73;;;;;;;17.44;51.96;100264.75;5094663;28;20068;-74
2023/02/19 01:04:12;;;;;;;4.40;1.80;;;;;;;17.42;51.90;100265.88;5094335;28;20044;-74
2023/02/19 01:06:40;;;;;;;3.20;1.77;;;;;;;17.42;51.97;100258.66;5094426;28;20446;-72
2023/02/19 01:09:10;;;;;;;2.95;1.80;;;;;;;17.41;51.72;100266.88;5094146;28;20052;-74
2023/02/19 01:11:38;;;;;;;3.28;1.83;;;;;;;17.40;51.89;100252.56;5094307;28;20044;-73
2023/02/19 01:14:06;;;;;;;1.95;1.40;;;;;;;17.37;51.68;100260.03;5094256;28;20102;-72
2023/02/19 01:16:35;;;;;;;3.33;1.67;;;;;;;17.37;51.75;100250.13;5094304;28;20051;-72
2023/02/19 01:19:03;;;;;;;2.83;1.60;;;;;;;17.36;51.84;100256.50;5094190;28;20094;-72
2023/02/19 01:21:31;;;;;;;3.40;1.90;;;;;;;17.35;51.90;100249.41;5093986;28;20071;-72
2023/02/19 01:24:00;;;;;;;3.67;1.80;;;;;;;17.33;51.87;100242.44;5094063;28;20500;-72
2023/02/19 01:26:31;;;;;;;3.33;1.40;;;;;;;17.33;51.77;100250.53;5094076;28;20075;-72
2023/02/19 01:29:01;;;;;;;2.63;1.40;;;;;;;17.30;51.71;100240.88;5094005;28;20040;-72
2023/02/19 01:31:29;;;;;;;3.15;1.73;;;;;;;17.29;51.66;100238.31;5093811;28;20048;-72
2023/02/19 01:34:00;;;;;;;2.75;1.52;;;;;;;17.28;51.77;100242.88;5093865;28;20048;-74
2023/02/19 01:36:29;;;;;;;2.60;1.60;;;;;;;17.28;51.78;100236.63;5093552;28;20059;-72
2023/02/19 01:39:02;;;;;;;4.70;1.90;;;;;;;17.28;51.77;100250.09;5093703;28;20408;-72
2023/02/19 01:41:34;;;;;;;;;;;;;;;17.26;51.78;100239.41;5094146;28;20130;-74
2023/02/19 01:44:06;;;;;;;2.95;1.40;;;;;;;17.26;51.97;100249.34;5093556;28;19920;-73
2023/02/19 01:46:35;;;;;;;2.77;1.67;;;;;;;17.24;51.74;100251.34;5093617;28;20476;-72
2023/02/19 01:49:07;;;;;;;2.17;1.40;;;;;;;17.22;51.39;100250.63;5104441;28;20048;-73
2023/02/19 01:51:38;;;;;;;2.75;1.42;;;;;;;17.22;51.90;100246.09;5093616;28;20052;-75
2023/02/19 01:54:08;;;;;;;2.70;1.40;;;;;;;17.21;51.61;100240.84;5092553;28;20040;-74
2023/02/19 01:56:42;;;;;;;1.77;1.20;;;;;;;17.19;51.92;100250.91;5093425;28;20048;-74
2023/02/19 01:59:11;;;;;;;3.58;1.52;;;;;;;17.17;52.01;100245.63;5093369;28;20087;-73
2023/02/19 02:01:41;;;;;;;3.13;1.42;;;;;;;17.17;51.65;100246.47;5093340;28;20087;-74
2023/02/19 02:04:11;;;;;;;2.97;1.42;;;;;;;17.16;51.69;100244.78;5093430;28;20044;-73
2023/02/19 02:06:46;;;;;;;2.35;1.42;;;;;;;17.13;51.95;100228.88;5093258;28;20051;-73
2023/02/19 02:12:03;;;;;;;2.45;1.48;;;;;;;17.12;52.19;100226.31;5093015;28;20067;-74
2023/02/19 02:14:34;;;;;;;2.15;1.27;;;;;;;17.12;52.07;100224.47;5093186;28;20040;-75
2023/02/19 02:17:14;;;;;;;3.28;1.42;;;;;;;17.11;52.09;100230.88;5093011;28;20447;-74
2023/02/19 02:20:01;;;;;;;2.00;1.20;;;;;;;17.10;51.68;100229.16;5092937;28;20048;-74
2023/02/19 02:22:35;;;;;;;2.05;1.25;;;;;;;17.10;52.00;100223.75;5092786;28;20374;-73
2023/02/19 02:25:29;;;;;;;2.55;1.40;;;;;;;17.06;51.71;100189.97;5092884;28;20052;-73
2023/02/19 02:28:17;;;;;;;2.55;1.23;;;;;;;17.05;52.04;100209.81;5064438;28;20558;-74
2023/02/19 02:30:49;;;;;;;2.45;1.40;;;;;;;17.07;51.78;100209.69;5092640;28;20105;-73
2023/02/19 02:33:25;;;;;;;1.98;1.20;;;;;;;17.05;51.92;100215.22;5092794;28;20067;-73
2023/02/19 02:35:58;;;;;;;2.85;1.40;;;;;;;17.04;51.16;100213.50;5092468;28;20043;-73
2023/02/19 02:38:30;;;;;;;2.97;1.25;;;;;;;17.03;51.64;100211.81;5092717;28;20044;-74
2023/02/19 02:40:59;;;;;;;2.33;1.10;;;;;;;17.01;51.73;100213.78;5092419;28;20047;-73
2023/02/19 02:43:28;;;;;;;2.35;1.20;;;;;;;17.02;51.81;100220.03;5092620;28;20051;-73
2023/02/19 02:45:57;;;;;;;1.98;0.93;;;;;;;17.00;51.90;100222.88;5092444;28;20542;-73
2023/02/19 02:48:35;;;;;;;2.90;1.27;;;;;;;16.99;51.77;100218.47;5092494;28;20122;-73
2023/02/19 02:51:12;;;;;;;2.15;1.20;;;;;;;16.97;51.75;100222.25;5092425;28;20174;-74
2023/02/19 02:56:42;;;;;;;1.90;1.20;;;;;;;16.95;52.02;100233.19;5056232;28;20048;-75
2023/02/19 02:59:13;;;;;;;1.77;0.95;;;;;;;16.94;51.71;100236.00;5092291;28;20055;-73
2023/02/19 03:05:50;;;;;;;2.97;1.08;;;;;;;16.92;51.80;100235.28;5092331;28;20048;-74
2023/02/19 03:07:31;;;;;;;2.63;1.00;;;;;;;16.92;51.77;100246.06;5092045;28;20044;-74
2023/02/19 03:10:02;;;;;;;2.20;1.02;;;;;;;16.91;51.69;100241.69;5092254;28;20051;-73
2023/02/19 03:21:06;;;;;;;1.88;1.00;;;;;;;16.87;51.92;100239.22;5091863;28;20051;-73
2023/02/19 03:26:25;;;;;;;1.80;0.98;;;;;;;16.86;51.95;100236.66;5092061;28;20056;-73
2023/02/19 03:31:43;;;;;;;1.35;0.90;;;;;;;16.84;51.59;100249.41;5091886;28;20044;-73
2023/02/19 03:34:19;;;;;;;1.15;0.80;;;;;;;16.79;51.98;100247.13;5091950;28;20048;-74
2023/02/19 03:36:57;;;;;;;1.50;0.98;;;;;;;16.83;52.23;100253.09;5091705;28;20054;-73
2023/02/19 03:39:26;;;;;;;1.55;0.93;;;;;;;16.80;52.27;100245.31;5091881;28;20044;-75
2023/02/19 03:42:03;;;;;;;1.90;1.00;;;;;;;16.80;52.42;100242.59;5091510;28;20093;-74
2023/02/19 03:44:40;;;;;;;1.48;1.02;;;;;;;16.80;52.07;100254.22;5091833;28;20048;-74
2023/02/19 03:47:16;;;;;;;1.60;0.90;;;;;;;16.79;52.16;100251.66;5091667;28;20040;-75
2023/02/19 03:49:50;;;;;;;1.83;1.15;;;;;;;16.80;52.29;100256.06;5091789;28;20079;-74
2023/02/19 03:52:24;;;;;;;1.50;1.00;;;;;;;16.78;52.46;100264.25;5091843;28;20044;-74
2023/02/19 03:54:57;;;;;;;1.90;1.10;;;;;;;16.78;52.24;100266.94;5091660;28;20075;-74
2023/02/19 03:57:34;;;;;;;2.13;1.15;;;;;;;16.77;52.45;100264.41;5091716;28;20056;-76
2023/02/19 04:00:10;;;;;;;2.88;1.08;;;;;;;16.76;52.80;100252.78;5091571;28;20066;-72
2023/02/19 04:02:44;;;;;;;2.03;1.17;;;;;;;16.76;52.66;100249.22;5091623;28;20127;-74
2023/02/19 04:05:16;;;;;;;1.35;1.00;;;;;;;16.73;52.72;100244.09;5091548;28;20405;-74
2023/02/19 04:07:48;;;;;;;1.80;0.90;;;;;;;16.76;52.74;100251.91;5091565;28;20046;-71
2023/02/19 04:10:18;;;;;;;1.38;0.90;;;;;;;16.74;52.86;100246.66;5091698;28;20489;-72
2023/02/19 04:12:50;;;;;;;2.33;1.20;;;;;;;16.72;52.86;100240.56;5091596;28;20047;-73
2023/02/19 04:15:22;;;;;;;1.38;0.93;;;;;;;16.73;53.04;100252.19;5091452;28;20048;-73
2023/02/19 04:17:55;;;;;;;1.95;1.13;;;;;;;16.74;52.93;100249.38;5093022;28;20129;-74
2023/02/19 04:20:29;;;;;;;1.17;0.77;;;;;;;16.73;52.69;100254.88;5095147;28;20044;-73
2023/02/19 04:22:58;;;;;;;2.72;1.05;;;;;;;16.73;52.90;100246.81;5095294;28;20054;-74
2023/02/19 04:25:27;;;;;;;2.08;1.08;;;;;;;16.71;52.88;100251.47;5095136;28;20512;-76
2023/02/19 04:27:55;;;;;;;2.42;0.95;;;;;;;16.72;52.90;100251.34;5095011;28;20358;-73
2023/02/19 04:30:24;;;;;;;2.03;1.17;;;;;;;16.71;52.65;100254.16;5095010;28;20439;-75
2023/02/19 04:32:52;;;;;;;2.05;1.00;;;;;;;16.70;53.05;100252.47;5095054;28;20051;-72
2023/02/19 04:35:20;;;;;;;1.58;0.90;;;;;;;16.71;52.87;100248.78;5095043;28;20475;-73
2023/02/19 04:37:50;;;;;;;1.38;0.90;;;;;;;16.67;52.84;100256.22;5094843;28;20083;-74
2023/02/19 04:40:18;;;;;;;1.92;1.00;;;;;;;16.68;52.44;100240.91;5094799;28;20493;-74
2023/02/19 04:42:46;;;;;;;1.65;0.95;;;;;;;16.67;52.49;100247.28;5094910;28;20538;-73
2023/02/19 04:45:14;;;;;;;1.20;1.00;;;;;;;16.68;52.42;100255.25;5095101;28;20051;-75
2023/02/19 04:47:43;;;;;;;2.08;1.00;;;;;;;16.67;52.67;100245.44;5094773;28;20068;-73
2023/02/19 04:50:11;;;;;;;2.80;1.10;;;;;;;16.67;52.61;100236.50;5094754;28;20097;-74
2023/02/19 04:52:39;;;;;;;1.38;0.93;;;;;;;16.67;52.62;100249.97;5094766;28;20706;-75
2023/02/19 04:55:10;;;;;;;1.20;0.80;;;;;;;16.65;52.39;100249.25;5094550;28;20070;-74
2023/02/19 04:57:38;;;;;;;1.10;0.73;;;;;;;16.65;52.54;100244.72;5094566;28;20043;-74
2023/02/19 05:00:08;;;;;;;2.17;0.75;;;;;;;16.66;52.57;100240.19;5094535;28;20488;-74
2023/02/19 05:02:36;;;;;;;1.13;0.80;;;;;;;16.64;52.47;100231.41;5094541;28;20048;-74
2023/02/19 05:05:04;;;;;;;1.35;0.90;;;;;;;16.64;52.72;100232.25;5094455;28;20094;-75
2023/02/19 05:07:34;;;;;;;2.05;1.10;;;;;;;16.62;52.27;100233.38;5094284;28;20051;-75
2023/02/19 05:10:02;;;;;;;1.05;0.82;;;;;;;16.57;52.27;100221.13;5094388;28;20499;-74
2023/02/19 05:12:32;;;;;;;1.17;0.70;;;;;;;16.59;52.22;100235.31;5094311;28;20054;-74
2023/02/19 05:15:00;;;;;;;1.10;0.80;;;;;;;16.57;52.17;100225.69;5094332;28;20051;-73
2023/02/19 05:17:28;;;;;;;1.88;0.90;;;;;;;16.60;52.25;100241.59;5094184;28;20044;-75
2023/02/19 05:19:56;;;;;;;1.30;0.63;;;;;;;16.60;52.03;100236.22;5094073;28;20044;-73
2023/02/19 05:22:25;;;;;;;1.27;0.70;;;;;;;16.59;52.31;100239.84;5094008;28;20043;-75
2023/02/19 05:24:53;;;;;;;1.92;0.85;;;;;;;16.53;52.34;100230.47;5094064;28;20097;-74
2023/02/19 05:27:21;;;;;;;1.05;0.80;;;;;;;16.57;52.19;100242.69;5094179;28;20109;-74
2023/02/19 05:29:52;;;;;;;1.73;0.80;;;;;;;16.52;52.25;100238.69;5092656;28;20477;-74
2023/02/19 05:32:20;;;;;;;2.25;0.88;;;;;;;16.56;52.32;100245.50;5094016;28;20048;-74
2023/02/19 05:34:48;;;;;;;1.25;0.80;;;;;;;16.54;52.48;100244.78;5093829;28;20127;-74
2023/02/19 05:37:16;;;;;;;0.85;0.70;;;;;;;16.54;52.66;100242.09;5093809;28;20103;-75
2023/02/19 05:39:50;;;;;;;1.15;0.65;;;;;;;16.54;52.50;100247.50;5093935;28;20150;-74
2023/02/19 05:42:19;;;;;;;1.73;0.80;;;;;;;16.53;52.56;100252.03;5093879;28;20535;-74
2023/02/19 05:44:47;;;;;;;1.52;0.80;;;;;;;16.50;52.62;100225.38;5093713;28;20492;-74
2023/02/19 05:47:17;;;;;;;1.95;0.90;;;;;;;16.51;52.58;100232.47;5093541;28;20077;-74
2023/02/19 05:49:47;;;;;;;1.85;0.60;;;;;;;16.50;52.46;100235.25;5093785;28;20427;-74
2023/02/19 05:52:15;;;;;;;1.58;0.80;;;;;;;16.50;52.29;100243.34;5093479;28;20123;-73
2023/02/19 05:54:43;;;;;;;1.15;0.88;;;;;;;16.49;52.51;100245.16;5093684;28;20503;-75
2023/02/19 05:57:11;;;;;;;1.27;0.68;;;;;;;16.48;52.55;100232.69;5093550;28;20071;-74
2023/02/19 05:59:39;;;;;;;1.35;0.80;;;;;;;16.47;52.40;100235.53;5093434;28;20407;-74
2023/02/19 06:02:09;;;;;;;0.93;0.60;;;;;;;16.48;52.39;100239.91;5093386;28;20081;-74
2023/02/19 06:04:39;;;;;;;1.02;0.70;;;;;;;16.47;52.62;100248.97;5093557;28;20097;-74
2023/02/19 06:07:07;;;;;;;1.15;0.80;;;;;;;16.48;52.46;100253.38;5093330;28;20118;-75
2023/02/19 06:09:36;;;;;;;2.00;0.70;;;;;;;16.47;52.53;100262.44;5093490;28;20040;-75
2023/02/19 06:12:04;;;;;;;1.40;0.77;;;;;;;16.46;52.71;100258.06;5093359;28;20105;-76
2023/02/19 06:14:32;;;;;;;1.58;1.05;;;;;;;16.46;52.67;100266.13;5093553;28;20048;-75
2023/02/19 06:17:01;;;;;;;1.58;0.98;;;;;;;16.46;52.61;100255.34;5093628;28;20048;-74
2023/02/19 06:19:29;;;;;;;1.52;0.98;;;;;;;16.44;52.73;100250.09;5093145;28;20051;-73
2023/02/19 06:21:59;;;;;;;2.85;0.90;;;;;;;16.46;52.94;100244.59;5092884;28;20097;-75
2023/02/19 06:24:27;;;;;;;2.45;0.93;;;;;;;16.45;52.89;100240.19;5093080;28;20404;-76
2023/02/19 06:26:55;;;;;;;1.00;0.80;;;;;;;16.43;52.95;100229.56;5092833;28;20051;-75
2023/02/19 06:29:23;;;;;;;2.58;0.90;;;;;;;16.42;53.09;100217.09;5092855;28;20043;-75
2023/02/19 06:31:52;;;;;;;1.40;0.85;;;;;;;16.43;52.97;100232.25;5092809;28;20043;-74
2023/02/19 06:34:20;;;;;;;1.70;1.05;;;;;;;16.42;52.80;100230.53;5092952;28;20066;-75
2023/02/19 06:36:49;;;;;;;2.50;1.30;;;;;;;16.41;52.87;100226.16;5092523;28;20499;-73
2023/02/19 06:39:18;;;;;;;1.73;0.95;;;;;;;16.43;52.71;100223.31;5092624;28;20044;-75
2023/02/19 06:41:47;;;;;;;1.42;0.93;;;;;;;16.42;53.08;100218.94;5092007;28;20048;-73
2023/02/19 06:44:15;;;;;;;1.85;1.10;;;;;;;16.41;52.74;100219.91;5092670;28;20047;-75
2023/02/19 06:46:43;;;;;;;1.88;0.90;;;;;;;16.39;52.96;100214.63;5092635;28;20496;-75
2023/02/19 06:49:12;;;;;;;2.30;1.10;;;;;;;16.38;53.10;100221.00;5092634;28;20043;-74
2023/02/19 06:51:40;;;;;;;1.80;0.90;;;;;;;16.40;52.96;100219.03;5092471;28;20051;-74
2023/02/19 06:54:08;;;;;;;1.55;0.80;;;;;;;16.40;53.07;100235.19;5092505;28;20051;-74
2023/02/19 06:56:39;;;;;;;1.48;0.95;;;;;;;16.38;53.09;100237.16;5107450;28;20096;-73
2023/02/19 06:59:11;;;;;;;1.60;1.10;;;;;;;16.39;53.01;100233.47;5112904;28;20048;-75
2023/02/19 07:01:40;;;;;;;1.60;0.95;;;;;;;16.38;53.01;100220.16;5112474;28;20092;-75
2023/02/19 07:04:08;;;;;;;1.88;1.02;;;;;;;16.39;53.15;100227.25;5112614;28;20104;-75
2023/02/19 07:06:37;;;;;;;2.47;1.20;;;;;;;16.38;52.99;100226.38;5112614;28;20036;-74
2023/02/19 07:09:07;;;;;;;1.95;1.13;;;;;;;16.38;53.08;100237.16;5112647;28;20414;-74
2023/02/19 07:11:38;;;;;;;2.70;1.00;;;;;;;16.38;53.25;100233.59;5112669;28;20063;-74
2023/02/19 07:14:08;;;;;;;5.75;1.30;;;;;;;16.38;53.31;100239.00;5112479;28;20039;-75
2023/02/19 07:16:37;;;;;;;3.70;1.25;;;;;;;16.38;53.13;100237.16;5112422;28;20487;-73
2023/02/19 07:19:05;;;;;;;2.72;1.20;;;;;;;16.37;53.28;100238.13;5112352;28;20039;-74
2023/02/19 07:21:36;;;;;;;2.50;1.20;;;;;;;16.36;53.37;100233.75;5112184;28;20071;-74
2023/02/19 07:24:05;;;;;;;2.28;1.30;;;;;;;16.38;53.19;100236.31;5112378;28;20043;-74
2023/02/19 07:26:34;;;;;;;2.80;1.58;;;;;;;16.38;53.14;100230.91;5112613;28;20400;-75
2023/02/19 07:29:03;;;;;;;2.90;1.70;;;;;;;16.35;53.08;100221.28;5112390;28;20050;-75
2023/02/19 07:31:32;;;;;;;4.22;1.60;;;;;;;16.37;53.34;100230.06;5112336;28;20044;-75
2023/02/19 07:34:00;;;;;;;4.65;1.88;;;;;;;16.37;53.40;100227.38;5112334;28;20074;-72
2023/02/19 07:36:28;;;;;;;4.25;2.03;;;;;;;16.36;53.43;100220.28;5112110;28;20507;-75
2023/02/19 07:38:57;;;;;;;4.35;2.05;;;;;;;16.37;53.26;100223.84;5112338;28;20122;-76
2023/02/19 07:41:27;;;;;;;3.55;2.00;;;;;;;16.35;53.19;100215.88;5112402;28;20487;-76
2023/02/19 07:43:56;;;;;;;6.47;1.80;;;;;;;16.36;53.38;100208.66;5112285;28;20055;-75
2023/02/19 07:46:26;;;;;;;4.18;1.88;;;;;;;16.36;53.53;100211.34;5112351;28;20066;-76
2023/02/19 07:48:55;;;;;;;4.57;1.83;;;;;;;16.36;53.27;100211.34;5112239;28;20100;-76
2023/02/19 07:51:23;;;;;;;5.32;2.00;;;;;;;16.36;52.98;100217.59;5111924;28;20040;-72
2023/02/19 07:53:51;;;;;;;4.88;2.67;;;;;;;16.34;53.11;100214.19;5114953;28;20100;-71
2023/02/19 07:56:20;;;;;;;4.43;2.92;;;;;;;16.36;52.76;100222.13;5117106;28;20040;-74
2023/02/19 07:58:48;;;;;;;5.30;3.13;;;;;;;16.35;53.01;100232.03;5116906;28;20115;-71
2023/02/19 08:01:18;;;;;;;6.07;3.30;;;;;;;16.36;53.46;100233.75;5112667;28;20035;-74
2023/02/19 08:03:48;;;;;;;7.47;2.85;;;;;;;16.36;53.24;100228.38;5115310;28;20435;-75
2023/02/19 08:06:17;;;;;;;7.43;3.03;;;;;;;16.37;53.53;100231.91;5112827;28;20043;-74
2023/02/19 08:08:45;;;;;;;5.68;3.10;;;;;;;16.38;53.62;100242.53;5115481;28;20054;-74
2023/02/19 08:13:59;;;;;;;7.30;3.10;;;;;;;16.38;53.36;100247.91;5114205;28;20071;-74
2023/02/19 08:16:27;;;;;;;6.20;3.42;;;;;;;16.38;53.49;100253.31;5115599;28;20545;-75
2023/02/19 08:19:11;;;;;;;8.57;3.17;;;;;;;16.36;53.29;100249.91;5116178;28;20499;-75
2023/02/19 08:21:39;;;;;;;6.85;3.08;;;;;;;16.35;53.52;100250.03;5116008;28;20648;-75
2023/02/19 08:24:08;;;;;;;5.95;2.60;;;;;;;16.38;53.68;100260.53;5115316;28;20047;-74
2023/02/19 08:26:41;;;;;;;5.20;2.72;;;;;;;16.37;53.87;100258.81;5115432;28;20452;-75
2023/02/19 08:29:10;;;;;;;6.13;3.08;;;;;;;16.37;53.99;100256.97;5115303;28;20044;-73
2023/02/19 08:31:38;;;;;;;7.30;3.22;;;;;;;16.37;54.07;100262.38;5114877;28;20044;-72
2023/02/19 08:34:06;;;;;;;8.20;3.05;;;;;;;16.37;54.23;100261.50;5114866;28;20071;-73
2023/02/19 08:36:35;;;;;;;10.63;3.35;;;;;;;16.37;54.43;100270.44;5114551;28;20051;-71
2023/02/19 08:39:04;;;;;;;5.40;2.85;;;;;;;16.36;54.16;100274.13;5115094;28;20496;-73
2023/02/19 08:41:32;;;;;;;9.25;3.70;;;;;;;16.37;54.32;100264.22;5114917;28;20126;-73
2023/02/19 08:44:00;;;;;;;7.68;3.45;;;;;;;16.38;54.17;100242.53;5115309;28;20044;-79
2023/02/19 08:46:28;;;;;;;11.57;3.60;;;;;;;16.36;54.23;100243.66;5113389;28;20507;-75
2023/02/19 08:48:57;;;;;;;8.48;2.75;;;;;;;16.36;54.78;100247.19;5115066;28;20055;-75
2023/02/19 08:51:25;;;;;;;6.50;2.78;;;;;;;16.38;55.09;100244.38;5115138;28;20427;-74
2023/02/19 08:53:54;;;;;;;9.25;3.15;;;;;;;16.35;54.80;100236.56;5114818;28;20047;-75
2023/02/19 08:56:22;;;;;;;8.02;2.65;;;;;;;16.38;54.86;100241.69;5115024;28;20118;-75
2023/02/19 08:58:51;;;;;;;10.20;2.63;;;;;;;16.37;55.39;100230.06;5115121;27;20059;-72
2023/02/19 09:01:19;;;;;;;10.13;2.55;;;;;;;16.38;55.32;100242.53;5114707;28;20051;-73
2023/02/19 09:03:48;;;;;;;11.32;2.65;;;;;;;16.39;55.67;100244.25;5113536;28;20125;-76
2023/02/19 09:06:18;;;;;;;6.65;2.60;;;;;;;16.35;55.88;100232.03;5114276;28;20719;-74
2023/02/19 09:08:46;;;;;;;8.82;2.55;;;;;;;16.38;55.76;100239.84;5113320;28;20054;-73
2023/02/19 09:11:16;;;;;;;8.63;2.50;;;;;;;16.41;55.20;100233.38;5114346;28;20047;-74
2023/02/19 09:13:44;;;;;;;8.40;2.38;;;;;;;16.40;55.12;100245.94;5112038;28;20082;-74
2023/02/19 09:16:12;;;;;;;7.28;2.50;;;;;;;16.42;55.02;100238.63;5112980;28;20400;-76
2023/02/19 09:18:41;;;;;;;11.10;2.67;;;;;;;16.43;55.14;100228.72;5114279;28;20122;-75
2023/02/19 09:21:09;;;;;;;7.22;2.28;;;;;;;16.39;55.28;100220.00;5114223;27;20043;-76
2023/02/19 09:23:38;;;;;;;8.70;2.72;;;;;;;16.45;55.20;100232.13;5114082;28;20086;-77
2023/02/19 09:26:08;;;;;;;9.52;2.28;;;;;;;16.45;55.36;100232.97;5114228;28;20711;-77
2023/02/19 09:28:40;;;;;;;10.57;2.25;;;;;;;16.44;55.89;100231.25;5114543;28;20067;-76
2023/02/19 09:31:11;;;;;;;9.50;2.60;;;;;;;16.47;55.86;100228.28;5114395;28;20075;-77
2023/02/19 09:33:43;;;;;;;10.13;2.50;;;;;;;16.49;56.50;100234.41;5114148;28;20449;-77
2023/02/19 09:36:12;;;;;;;8.70;2.42;;;;;;;16.51;56.36;100232.47;5113482;28;20086;-77
2023/02/19 09:38:40;;;;;;;8.93;2.53;;;;;;;16.52;56.47;100223.38;5115915;28;20043;-74
2023/02/19 09:41:14;;;;;;;7.68;2.40;;;;;;;16.54;56.90;100228.63;5113989;28;20050;-74
2023/02/19 09:43:44;;;;;;;6.53;2.33;;;;;;;16.57;57.17;100207.69;5113797;28;20057;-75
2023/02/19 09:46:25;;;;;;;10.93;2.78;;;;;;;16.57;57.38;100207.69;5113730;28;20077;-76
2023/02/19 09:49:03;;;;;;;6.65;2.33;;;;;;;16.62;57.46;100222.59;5113789;27;20058;-78
2023/02/19 09:51:34;;;;;;;5.25;2.25;;;;;;;16.63;57.52;100203.63;5114122;28;20489;-76
2023/02/19 09:54:06;;;;;;;5.70;2.70;;;;;;;16.64;57.49;100199.94;5113995;28;20054;-78
2023/02/19 09:56:34;;;;;;;7.63;2.30;;;;;;;16.69;57.56;100196.88;5114134;28;20048;-77
2023/02/19 09:59:05;;;;;;;7.55;2.70;;;;;;;16.72;57.78;100185.84;5114036;28;20040;-79
2023/02/19 10:01:39;;;;;;;7.75;2.50;;;;;;;16.71;57.77;100190.38;5114198;28;20077;-78
2023/02/19 10:04:09;;;;;;;7.47;2.60;;;;;;;16.75;57.79;100185.56;5113816;28;20050;-79
2023/02/19 10:06:37;;;;;;;6.05;2.20;;;;;;;16.77;57.80;100180.91;5113873;28;20405;-78
2023/02/19 10:09:20;;;;;;;5.07;2.20;;;;;;;16.82;57.81;100175.97;5113562;28;20044;-77
2023/02/19 10:11:49;;;;;;;7.97;2.40;;;;;;;16.88;57.60;100162.81;5113705;28;20052;-79
2023/02/19 10:14:28;;;;;;;7.82;2.72;;;;;;;16.96;57.57;100155.91;5113440;28;20096;-78
2023/02/19 10:16:59;;;;;;;4.80;2.50;;;;;;;17.03;57.42;100148.97;5113549;28;20506;-83
2023/02/19 10:19:28;;;;;;;5.60;2.80;;;;;;;17.09;57.26;100143.91;5114711;28;20039;-82
2023/02/19 10:21:57;;;;;;;8.32;2.65;;;;;;;17.13;57.16;100142.63;5114699;28;20506;-78
2023/02/19 10:24:29;;;;;;;8.35;2.95;;;;;;;17.22;56.98;100145.50;5113778;28;20046;-82
2023/02/19 10:26:57;;;;;;;5.05;2.58;;;;;;;17.25;56.84;100127.19;5115239;28;20047;-80
2023/02/19 10:29:27;;;;;;;6.50;3.00;;;;;;;17.30;56.76;100129.50;5114916;28;20539;-79
2023/02/19 10:32:19;;;;;;;6.60;2.63;;;;;;;17.32;56.94;100112.19;5114647;28;20044;-80
2023/02/19 10:34:48;;;;;;;5.73;2.33;;;;;;;17.32;57.08;100117.56;5113874;28;20503;-79
2023/02/19 10:37:18;;;;;;;6.35;2.65;;;;;;;17.34;56.96;100103.97;5116393;28;20840;-80
2023/02/19 10:39:50;;;;;;;6.32;2.45;;;;;;;17.36;57.10;100104.66;5115272;28;20131;-76
2023/02/19 10:42:21;;;;;;;5.30;2.50;;;;;;;17.36;57.04;100093.88;5113556;28;20134;-80
2023/02/19 10:44:57;;;;;;;6.65;2.70;;;;;;;17.38;57.09;100100.84;5113514;28;20047;-80
2023/02/19 10:47:27;;;;;;;6.15;2.30;;;;;;;17.42;56.94;100079.84;5114030;28;20039;-78
2023/02/19 10:49:58;;;;;;;7.65;2.60;;;;;;;17.44;56.94;100085.94;5113799;28;20046;-79
2023/02/19 10:52:29;;;;;;;4.88;2.38;;;;;;;17.46;56.52;100078.56;5113685;28;20462;-78
2023/02/19 10:55:17;;;;;;;6.07;2.15;;;;;;;17.49;56.69;100077.47;5113669;28;20044;-79
2023/02/19 10:57:45;;;;;;;4.63;2.28;;;;;;;17.54;56.60;100078.72;5113674;28;20131;-77
2023/02/19 11:00:25;;;;;;;4.15;2.15;;;;;;;17.57;56.18;100056.88;5113609;28;20130;-75
2023/02/19 11:03:22;;;;;;;4.78;1.92;;;;;;;17.60;56.15;100043.09;5113123;28;20134;-77
2023/02/19 11:05:57;;;;;;;4.72;2.10;;;;;;;17.66;55.70;100053.34;5077565;28;20051;-77
2023/02/19 11:08:26;;;;;;;5.13;2.10;;;;;;;17.70;55.88;100051.22;5112989;28;20078;-78
2023/02/19 11:10:55;;;;;;;4.72;2.00;;;;;;;17.70;55.60;100033.19;5112721;28;20536;-77
2023/02/19 11:13:29;;;;;;;3.67;2.10;;;;;;;17.78;55.60;100023.53;5112619;28;20044;-77
2023/02/19 11:16:00;;;;;;;4.13;2.20;;;;;;;17.81;55.34;100028.63;5112790;28;20101;-78
2023/02/19 11:18:31;;;;;;;5.93;2.03;;;;;;;17.82;55.24;100015.00;5112757;28;20080;-79
2023/02/19 11:21:01;;;;;;;4.13;1.90;;;;;;;17.87;55.06;100055.91;5112843;28;20050;-77
2023/02/19 11:23:34;;;;;;;3.20;1.75;;;;;;;17.90;55.09;100033.19;5112794;28;20089;-77
2023/02/19 11:26:05;;;;;;;3.70;1.80;;;;;;;17.94;55.17;100024.63;5112397;28;20044;-79
2023/02/19 11:28:36;;;;;;;2.90;1.60;;;;;;;17.98;55.20;100047.66;5112507;28;20112;-78
2023/02/19 11:31:22;;;;;;;2.72;1.55;;;;;;;18.02;55.06;100015.81;5112504;28;20044;-77
2023/02/19 11:33:55;;;;;;;3.53;1.77;;;;;;;18.06;55.06;100011.00;5112590;28;20051;-78
2023/02/19 11:36:27;;;;;;;3.47;1.58;;;;;;;18.06;55.13;100001.06;5112190;28;20124;-77
2023/02/19 11:38:59;;;;;;;3.03;1.50;;;;;;;18.10;54.92;100001.59;5112545;28;20090;-76
2023/02/19 11:41:58;;;;;;;3.20;1.75;;;;;;;18.13;54.82;100009.41;5112665;28;20118;-77
2023/02/19 11:44:39;;;;;;;4.97;1.90;;;;;;;18.14;54.40;100008.41;5112578;28;20045;-78
2023/02/19 11:47:43;;;;;;;3.67;1.77;;;;;;;18.20;54.67;100013.22;5112423;28;20077;-78
2023/02/19 11:50:21;;;;;;;3.85;1.85;;;;;;;18.22;54.43;100008.50;5112458;28;20417;-78
2023/02/19 11:53:04;;;;;;;4.82;2.03;;;;;;;18.25;54.05;99994.75;5112395;28;20274;-79
2023/02/19 11:55:51;;;;;;;3.78;1.70;;;;;;;18.26;53.95;99961.34;5112682;28;20047;-77
2023/02/19 11:58:46;;;;;;;3.00;1.60;;;;;;;18.31;54.03;99978.78;5112233;28;20047;-78
2023/02/19 12:01:23;;;;;;;2.85;1.60;;;;;;;18.34;53.85;99980.34;5112252;28;20071;-78
2023/02/19 12:04:20;;;;;;;3.00;1.60;;;;;;;18.38;53.77;99978.19;5112534;28;20055;-78
2023/02/19 12:07:00;;;;;;;2.10;1.30;;;;;;;18.41;53.42;99996.78;5112258;28;20126;-77
2023/02/19 12:09:40;;;;;;;3.92;1.60;;;;;;;18.42;53.59;99980.44;5112210;28;20066;-78